Time;durP1;ratioP1;P1;durP2;ratioP2;P2;SDS_P1;SDS_P2;PMS_P1;PMS_P2;Temp;Humidity;BMP_temperature;BMP_pressure;BME280_temperature;BME280_humidity;BME280_pressure;Samples;Min_cycle;Max_cycle;Signal;HPM_P1;HPM_P2
2023/06/22 00:01:10;;;;;;;14.52;4.88;;;;;;;24.77;66.17;100585.56;5095833;28;20470;-69
2023/06/22 00:03:35;;;;;;;10.45;4.90;;;;;;;24.74;66.26;100580.50;5097132;28;20036;-68
2023/06/22 00:06:01;;;;;;;17.73;5.70;;;;;;;24.76;66.48;100577.53;5091812;28;20475;-70
2023/06/22 00:08:26;;;;;;;11.52;4.40;;;;;;;24.65;66.42;100562.59;5091362;28;20059;-68
2023/06/22 00:10:52;;;;;;;9.05;4.70;;;;;;;24.74;66.51;100569.53;5099368;28;20781;-69
2023/06/22 00:13:17;;;;;;;17.02;4.80;;;;;;;24.73;66.54;100564.25;5105569;28;20094;-69
2023/06/22 00:15:43;;;;;;;15.70;4.95;;;;;;;24.67;66.40;100557.75;5104372;28;20035;-69
2023/06/22 00:18:10;;;;;;;12.35;4.50;;;;;;;24.72;66.53;100570.78;5094106;28;20020;-69
2023/06/22 00:20:39;;;;;;;13.10;4.30;;;;;;;24.70;66.61;100560.06;5095336;28;20395;-69
2023/06/22 00:23:08;;;;;;;15.98;4.78;;;;;;;24.67;66.96;100555.00;5098755;28;20039;-68
2023/06/22 00:25:37;;;;;;;13.20;4.55;;;;;;;24.66;67.29;100566.22;5095535;28;20035;-69
2023/06/22 00:28:04;;;;;;;16.25;5.25;;;;;;;24.63;67.78;100548.22;5093840;28;20076;-68
2023/06/22 00:30:30;;;;;;;11.38;4.65;;;;;;;24.63;68.27;100548.22;5091734;28;20063;-68
2023/06/22 00:32:56;;;;;;;14.05;4.80;;;;;;;24.62;68.39;100548.44;5103308;28;20074;-68
2023/06/22 00:35:22;;;;;;;17.48;5.43;;;;;;;24.56;68.53;100539.19;5105439;28;20059;-69
2023/06/22 00:37:47;;;;;;;14.90;4.85;;;;;;;24.58;68.77;100549.94;5108894;28;20047;-69
2023/06/22 00:40:13;;;;;;;12.38;4.60;;;;;;;24.58;69.13;100541.72;5102752;28;20036;-69
2023/06/22 00:42:38;;;;;;;18.83;4.53;;;;;;;24.56;69.23;100541.94;5092678;28;20051;-68
2023/06/22 00:45:05;;;;;;;13.82;5.05;;;;;;;24.55;69.52;100543.00;5089950;28;20036;-68
2023/06/22 00:47:31;;;;;;;12.18;4.72;;;;;;;24.53;69.94;100536.06;5105018;28;20043;-68
2023/06/22 00:49:58;;;;;;;14.38;5.07;;;;;;;24.52;69.83;100534.38;5090350;28;20043;-67
2023/06/22 00:52:28;;;;;;;10.88;4.63;;;;;;;24.52;69.95;100539.84;5091583;28;20020;-68
2023/06/22 00:54:55;;;;;;;16.42;5.00;;;;;;;24.48;70.04;100529.31;5093347;28;20477;-69
2023/06/22 00:57:22;;;;;;;14.60;4.50;;;;;;;24.48;70.27;100527.66;5099031;28;20081;-68
2023/06/22 00:59:48;;;;;;;21.58;5.68;;;;;;;24.45;70.49;100513.31;5107073;28;20037;-68
2023/06/22 01:02:14;;;;;;;11.25;4.53;;;;;;;24.45;70.54;100505.06;5092522;27;20032;-69
2023/06/22 01:04:40;;;;;;;16.52;5.32;;;;;;;24.44;70.90;100499.84;5103760;28;20058;-69
2023/06/22 01:07:05;;;;;;;11.35;4.95;;;;;;;24.43;71.74;100504.47;5095934;28;20359;-68
2023/06/22 01:09:35;;;;;;;11.77;4.47;;;;;;;24.41;72.41;100494.78;5100294;28;20042;-69
2023/06/22 01:12:03;;;;;;;9.23;4.80;;;;;;;24.39;73.03;100500.50;5096133;28;20024;-69
2023/06/22 01:14:55;;;;;;;13.65;4.75;;;;;;;24.36;73.53;100503.66;5094362;28;20131;-68
2023/06/22 01:17:21;;;;;;;11.43;4.85;;;;;;;24.33;73.88;100498.63;5096961;28;20046;-68
2023/06/22 01:19:55;;;;;;;12.07;4.68;;;;;;;24.24;74.09;100474.41;5095968;28;20120;-68
2023/06/22 01:22:24;;;;;;;11.23;4.80;;;;;;;24.23;74.73;100473.59;5102377;28;20063;-68
2023/06/22 01:25:04;;;;;;;9.65;4.65;;;;;;;24.30;75.44;100487.25;5094861;28;20784;-69
2023/06/22 01:27:56;;;;;;;12.07;4.72;;;;;;;24.27;76.27;100495.91;5101569;28;20019;-69
2023/06/22 01:30:25;;;;;;;10.02;4.75;;;;;;;24.27;76.61;100504.97;5094020;28;20040;-69
2023/06/22 01:32:52;;;;;;;13.30;4.70;;;;;;;24.25;76.88;100501.59;5105549;28;20497;-69
2023/06/22 01:35:20;;;;;;;10.95;4.97;;;;;;;24.17;77.16;100493.66;5105334;28;20024;-69
2023/06/22 01:37:46;;;;;;;11.38;5.30;;;;;;;24.22;77.46;100509.44;5099899;28;20024;-68
2023/06/22 01:40:13;;;;;;;11.55;5.10;;;;;;;24.19;77.10;100513.44;5100966;28;20035;-68
2023/06/22 01:42:39;;;;;;;14.43;5.60;;;;;;;24.24;77.68;100521.88;5094327;28;20708;-67
2023/06/22 01:45:06;;;;;;;13.80;5.60;;;;;;;24.13;77.63;100500.63;5090008;28;20075;-68
2023/06/22 01:47:32;;;;;;;13.20;5.20;;;;;;;24.22;77.83;100521.22;5103940;28;20134;-68
2023/06/22 01:49:58;;;;;;;9.20;4.63;;;;;;;24.21;78.35;100518.69;5096340;28;20100;-69
2023/06/22 01:52:23;;;;;;;14.88;5.30;;;;;;;24.18;78.66;100524.63;5107581;28;20459;-69
2023/06/22 01:54:49;;;;;;;15.30;5.78;;;;;;;24.13;79.29;100528.03;5107569;28;20027;-68
2023/06/22 01:57:14;;;;;;;12.68;5.43;;;;;;;24.15;79.53;100534.13;5102164;28;20073;-68
2023/06/22 02:00:02;;;;;;;12.82;5.55;;;;;;;24.15;79.92;100538.78;5100791;28;20023;-68
2023/06/22 02:02:33;;;;;;;11.85;5.60;;;;;;;24.13;80.08;100543.63;5090889;28;20566;-68
2023/06/22 02:05:06;;;;;;;13.98;5.28;;;;;;;24.04;80.34;100525.75;5092476;28;20055;-68
2023/06/22 02:07:38;;;;;;;17.88;5.47;;;;;;;24.00;80.66;100521.75;5091445;28;20039;-69
2023/06/22 02:10:06;;;;;;;13.50;5.95;;;;;;;24.05;80.86;100533.75;5099647;28;20046;-68
2023/06/22 02:12:33;;;;;;;14.63;4.93;;;;;;;23.97;80.98;100527.66;5086331;28;20840;-67
2023/06/22 02:15:00;;;;;;;12.10;5.55;;;;;;;24.00;81.14;100541.78;5098746;28;20069;-68
2023/06/22 02:17:26;;;;;;;9.52;4.65;;;;;;;23.99;81.52;100545.56;5102088;28;20467;-68
2023/06/22 02:19:52;;;;;;;15.35;5.85;;;;;;;23.93;81.86;100546.38;5092681;28;20115;-69
2023/06/22 02:22:17;;;;;;;12.90;5.53;;;;;;;23.94;81.84;100561.84;5086520;28;20483;-69
2023/06/22 02:24:43;;;;;;;10.60;5.53;;;;;;;23.93;82.03;100564.75;5093801;28;20063;-69
2023/06/22 02:27:08;;;;;;;11.18;5.32;;;;;;;23.94;82.56;100580.16;5102236;28;20032;-68
2023/06/22 02:32:58;;;;;;;14.13;5.80;;;;;;;23.88;82.84;100578.25;5093316;28;20078;-69
2023/06/22 02:35:31;;;;;;;11.68;5.03;;;;;;;23.87;82.40;100577.41;5101150;28;20038;-69
2023/06/22 02:37:58;;;;;;;12.77;5.65;;;;;;;23.87;82.52;100571.09;5103841;28;20110;-67
2023/06/22 02:40:23;;;;;;;10.85;5.05;;;;;;;23.81;82.38;100570.06;5099546;28;20608;-68
2023/06/22 02:42:48;;;;;;;18.95;5.63;;;;;;;23.77;82.35;100557.00;5100732;28;20051;-68
2023/06/22 02:45:14;;;;;;;8.85;5.07;;;;;;;23.78;82.66;100575.97;5094029;28;20030;-68
2023/06/22 02:47:39;;;;;;;19.17;5.88;;;;;;;23.77;82.71;100578.91;5091512;28;20027;-68
2023/06/22 02:50:05;;;;;;;10.48;5.15;;;;;;;23.78;82.63;100581.44;5097876;28;20034;-69
2023/06/22 02:52:31;;;;;;;14.50;5.45;;;;;;;23.77;82.40;100576.16;5091385;28;20062;-67
2023/06/22 02:54:56;;;;;;;15.57;5.78;;;;;;;23.76;82.63;100583.53;5095511;28;20142;-69
2023/06/22 02:57:21;;;;;;;13.77;5.75;;;;;;;23.74;82.45;100579.34;5098380;28;20022;-68
2023/06/22 02:59:47;;;;;;;10.43;5.35;;;;;;;23.73;82.84;100572.19;5088988;28;20039;-68
2023/06/22 03:02:12;;;;;;;12.82;5.80;;;;;;;23.68;83.10;100570.06;5087010;28;20558;-69
2023/06/22 03:04:38;;;;;;;9.57;4.88;;;;;;;23.72;83.36;100576.81;5087601;28;20024;-68
2023/06/22 03:07:03;;;;;;;11.55;5.03;;;;;;;23.64;83.40;100566.06;5089517;28;20077;-67
2023/06/22 03:09:29;;;;;;;14.07;5.78;;;;;;;23.76;83.88;100574.50;5087958;28;20045;-67
2023/06/22 03:11:55;;;;;;;10.23;5.72;;;;;;;23.76;83.75;100569.84;5087257;28;20038;-68
2023/06/22 03:14:20;;;;;;;10.77;5.72;;;;;;;23.76;84.22;100574.50;5091761;28;20356;-69
2023/06/22 03:16:46;;;;;;;9.20;5.00;;;;;;;23.63;84.46;100552.59;5089521;28;20034;-68
2023/06/22 03:19:12;;;;;;;12.90;5.28;;;;;;;23.69;85.04;100573.63;5086945;28;20024;-69
2023/06/22 03:21:38;;;;;;;13.15;5.78;;;;;;;23.72;85.60;100581.44;5089349;28;20026;-68
2023/06/22 03:24:05;;;;;;;13.18;5.85;;;;;;;23.70;85.78;100576.16;5088290;28;20054;-69
2023/06/22 03:26:30;;;;;;;9.50;5.28;;;;;;;23.71;85.72;100579.75;5100607;28;20050;-68
2023/06/22 03:28:56;;;;;;;9.52;5.07;;;;;;;23.70;85.61;100572.59;5101032;28;20067;-68
2023/06/22 03:31:22;;;;;;;12.00;6.05;;;;;;;23.71;85.59;100580.59;5095366;28;20535;-67
2023/06/22 03:33:49;;;;;;;11.00;5.53;;;;;;;23.68;85.89;100581.03;5104009;28;20083;-68
2023/06/22 03:36:18;;;;;;;13.32;5.45;;;;;;;23.65;85.78;100578.72;5090178;28;20027;-69
2023/06/22 03:38:46;;;;;;;12.90;5.57;;;;;;;23.60;85.39;100564.81;5106073;28;20102;-69
2023/06/22 03:41:11;;;;;;;12.98;5.82;;;;;;;23.66;85.67;100571.31;5106625;28;20111;-68
2023/06/22 03:43:37;;;;;;;14.25;5.70;;;;;;;23.69;85.60;100576.38;5095560;28;20103;-68
2023/06/22 03:46:02;;;;;;;9.18;4.97;;;;;;;23.64;85.90;100570.72;5109864;28;20023;-67
2023/06/22 03:48:28;;;;;;;13.95;5.55;;;;;;;23.65;86.11;100573.25;5110184;28;20092;-68
2023/06/22 03:50:53;;;;;;;15.55;6.20;;;;;;;23.60;86.11;100572.19;5097663;28;20031;-69
2023/06/22 03:53:19;;;;;;;15.57;6.32;;;;;;;23.67;86.22;100583.97;5091827;28;20032;-69
2023/06/22 03:55:52;;;;;;;10.80;5.25;;;;;;;23.68;86.12;100589.25;5098111;28;20375;-68
2023/06/22 03:58:18;;;;;;;14.05;6.55;;;;;;;23.68;86.62;100580.19;5095071;28;20035;-68
2023/06/22 04:00:49;;;;;;;12.70;5.68;;;;;;;23.68;86.48;100580.19;5099624;28;20047;-69
2023/06/22 04:03:15;;;;;;;12.80;6.22;;;;;;;23.68;86.80;100578.28;5103863;28;20028;-69
2023/06/22 04:05:41;;;;;;;14.00;5.68;;;;;;;23.68;86.63;100589.25;5109850;28;20026;-69
2023/06/22 04:08:07;;;;;;;11.85;6.22;;;;;;;23.69;86.60;100588.19;5108788;28;20359;-69
2023/06/22 04:10:32;;;;;;;10.52;5.40;;;;;;;23.69;86.21;100582.72;5091700;28;20043;-69
2023/06/22 04:12:58;;;;;;;11.40;6.15;;;;;;;23.69;86.16;100582.72;5105403;28;20059;-68
2023/06/22 04:15:23;;;;;;;10.40;5.65;;;;;;;23.65;85.79;100567.75;5092640;28;20498;-68
2023/06/22 04:17:49;;;;;;;18.52;6.63;;;;;;;23.69;85.56;100579.13;5107005;28;20031;-69
2023/06/22 04:20:14;;;;;;;14.90;5.85;;;;;;;23.69;85.37;100582.72;5099593;28;20020;-69
2023/06/22 04:22:40;;;;;;;11.68;6.65;;;;;;;23.69;85.12;100577.22;5092572;28;20036;-68
2023/06/22 04:25:07;;;;;;;8.55;6.15;;;;;;;23.65;84.95;100575.97;5092049;27;20062;-68
2023/06/22 04:27:36;;;;;;;9.07;5.50;;;;;;;23.74;84.80;100593.03;5094653;28;20034;-68
2023/06/22 04:30:03;;;;;;;11.30;5.97;;;;;;;23.69;84.53;100587.34;5091292;28;20054;-69
2023/06/22 04:32:29;;;;;;;15.85;5.60;;;;;;;23.70;83.99;100589.84;5091895;28;20020;-69
2023/06/22 04:34:54;;;;;;;10.38;5.40;;;;;;;23.79;83.72;100605.03;5093205;28;20030;-68
2023/06/22 04:37:23;;;;;;;15.77;6.07;;;;;;;23.74;83.88;100606.72;5087099;28;20027;-68
2023/06/22 04:39:48;;;;;;;17.20;6.72;;;;;;;23.80;84.85;100614.91;5094003;28;20437;-67
2023/06/22 04:42:14;;;;;;;15.48;6.63;;;;;;;23.80;85.64;100619.56;5093916;28;20031;-68
2023/06/22 04:44:41;;;;;;;13.95;7.03;;;;;;;23.80;85.60;100617.66;5097147;28;20051;-68
2023/06/22 04:47:08;;;;;;;16.48;6.53;;;;;;;23.81;85.73;100611.16;5099494;28;20036;-68
2023/06/22 04:49:35;;;;;;;11.10;6.03;;;;;;;23.81;85.81;100613.03;5092477;28;20039;-68
2023/06/22 04:52:09;;;;;;;22.25;7.00;;;;;;;23.79;85.95;100620.59;5102623;28;20038;-68
2023/06/22 04:54:36;;;;;;;23.27;6.50;;;;;;;23.84;86.12;100640.88;5089798;28;20020;-68
2023/06/22 04:57:03;;;;;;;17.60;6.45;;;;;;;23.65;85.46;100616.22;5106962;28;20028;-68
2023/06/22 04:59:30;;;;;;;17.27;6.82;;;;;;;23.84;86.32;100642.75;5096525;28;20091;-68
2023/06/22 05:02:01;;;;;;;19.25;7.35;;;;;;;23.83;87.00;100632.84;5086881;28;20024;-68
2023/06/22 05:04:31;;;;;;;17.27;7.20;;;;;;;23.82;86.92;100626.53;5104902;28;20554;-67
2023/06/22 05:06:57;;;;;;;16.75;6.18;;;;;;;23.83;86.92;100632.84;5100138;28;20462;-67
2023/06/22 05:09:22;;;;;;;15.00;6.38;;;;;;;23.84;86.60;100624.41;5098930;28;20031;-67
2023/06/22 05:11:48;;;;;;;11.38;6.18;;;;;;;23.83;86.56;100625.47;5089103;28;20372;-68
2023/06/22 05:14:14;;;;;;;15.13;6.60;;;;;;;23.83;86.99;100628.19;5103874;28;20034;-68
2023/06/22 05:16:41;;;;;;;13.52;6.38;;;;;;;23.83;87.29;100643.81;5098768;28;20044;-68
2023/06/22 05:19:07;;;;;;;13.90;6.13;;;;;;;23.87;87.55;100645.06;5087425;28;20391;-68
2023/06/22 05:21:32;;;;;;;13.40;6.38;;;;;;;23.89;87.15;100653.94;5093770;28;20080;-67
2023/06/22 05:24:00;;;;;;;18.02;6.85;;;;;;;23.89;86.67;100653.94;5090692;28;20051;-68
2023/06/22 05:26:26;;;;;;;14.05;6.72;;;;;;;23.91;86.27;100663.63;5096603;28;20028;-68
2023/06/22 05:28:52;;;;;;;12.38;6.32;;;;;;;23.90;86.30;100667.38;5097266;28;20029;-67
2023/06/22 05:31:19;;;;;;;17.77;6.72;;;;;;;23.85;86.45;100656.25;5098865;28;20081;-68
2023/06/22 05:33:46;;;;;;;10.98;6.30;;;;;;;23.81;86.35;100645.91;5092809;28;20111;-67
2023/06/22 05:36:12;;;;;;;12.95;5.65;;;;;;;23.92;86.22;100662.53;5103093;28;20036;-68
2023/06/22 05:38:38;;;;;;;13.07;6.05;;;;;;;23.89;86.06;100643.78;5097343;28;20028;-68
2023/06/22 05:41:04;;;;;;;17.75;6.97;;;;;;;23.95;85.90;100653.94;5098810;28;20038;-68
2023/06/22 05:43:29;;;;;;;12.55;5.90;;;;;;;24.05;85.78;100678.16;5097611;28;20019;-68
2023/06/22 05:45:55;;;;;;;15.80;6.60;;;;;;;23.96;85.67;100644.66;5105174;28;20034;-69
2023/06/22 05:48:21;;;;;;;13.48;6.00;;;;;;;24.12;85.53;100665.31;5086526;28;20170;-67
2023/06/22 05:50:46;;;;;;;8.02;5.68;;;;;;;24.14;85.07;100663.19;5098565;28;20024;-68
2023/06/22 05:53:12;;;;;;;14.68;5.90;;;;;;;24.18;84.84;100669.91;5087512;28;20151;-68
2023/06/22 05:55:37;;;;;;;13.40;6.03;;;;;;;24.23;84.82;100673.72;5089056;28;20076;-68
2023/06/22 05:58:05;;;;;;;15.93;6.00;;;;;;;24.30;84.71;100662.72;5091661;28;20024;-67
2023/06/22 06:00:31;;;;;;;8.68;5.63;;;;;;;24.41;84.03;100665.63;5099397;28;20026;-68
2023/06/22 06:02:56;;;;;;;8.75;5.30;;;;;;;24.47;83.19;100660.38;5095178;28;20383;-69
2023/06/22 06:05:23;;;;;;;12.77;5.75;;;;;;;24.55;82.37;100649.13;5095302;28;20039;-68
2023/06/22 06:07:49;;;;;;;12.05;5.38;;;;;;;24.65;81.92;100646.81;5101690;28;20698;-67
2023/06/22 06:10:15;;;;;;;7.43;5.18;;;;;;;24.84;81.19;100659.59;5094075;28;20080;-68
2023/06/22 06:12:40;;;;;;;11.82;5.72;;;;;;;24.96;80.00;100664.19;5093594;28;20035;-68
2023/06/22 06:15:06;;;;;;;8.52;5.40;;;;;;;25.09;78.61;100663.25;5101860;28;20119;-68
2023/06/22 06:17:31;;;;;;;11.02;6.78;;;;;;;25.19;77.90;100664.47;5093210;28;20100;-69
2023/06/22 06:19:59;;;;;;;12.52;5.90;;;;;;;25.33;77.35;100670.75;5094228;28;20383;-69
2023/06/22 06:22:24;;;;;;;8.07;5.03;;;;;;;25.45;76.87;100664.34;5089396;27;20051;-68
2023/06/22 06:24:50;;;;;;;11.02;5.82;;;;;;;25.58;75.20;100674.38;5088987;28;20777;-68
2023/06/22 06:27:18;;;;;;;9.25;5.20;;;;;;;25.66;74.47;100671.34;5102019;28;20517;-69
2023/06/22 06:29:45;;;;;;;13.32;5.05;;;;;;;25.63;72.41;100650.63;5097172;28;20130;-68
2023/06/22 06:32:13;;;;;;;8.77;5.40;;;;;;;25.81;72.62;100663.59;5096348;28;20089;-69
2023/06/22 06:34:40;;;;;;;8.88;4.72;;;;;;;25.97;72.63;100672.16;5092263;28;20031;-69
2023/06/22 06:37:05;;;;;;;7.88;4.88;;;;;;;26.11;71.94;100673.72;5093738;28;20046;-69
2023/06/22 06:39:31;;;;;;;6.70;3.92;;;;;;;26.22;69.71;100674.88;5105072;28;20036;-70
2023/06/22 06:41:56;;;;;;;7.47;4.70;;;;;;;26.38;69.04;100677.03;5085795;28;20032;-69
2023/06/22 06:44:21;;;;;;;5.95;4.10;;;;;;;26.50;67.81;100669.69;5097655;28;20514;-69
2023/06/22 06:46:47;;;;;;;7.63;4.70;;;;;;;26.61;66.76;100663.47;5085831;28;20028;-70
2023/06/22 06:49:13;;;;;;;6.53;4.18;;;;;;;26.76;66.50;100658.38;5100057;28;20398;-69
2023/06/22 06:51:38;;;;;;;9.27;4.13;;;;;;;26.90;66.17;100656.31;5093157;28;20092;-70
2023/06/22 06:54:04;;;;;;;4.85;3.80;;;;;;;27.01;65.14;100645.34;5090672;28;20031;-69
2023/06/22 06:56:30;;;;;;;7.30;4.25;;;;;;;27.26;63.88;100659.00;5091379;28;20076;-70
2023/06/22 06:58:55;;;;;;;5.57;4.15;;;;;;;27.44;63.26;100665.25;5090014;28;20055;-68
2023/06/22 07:01:21;;;;;;;10.30;5.05;;;;;;;27.52;62.50;100650.31;5096422;28;20062;-69
2023/06/22 07:03:46;;;;;;;11.95;4.65;;;;;;;27.73;61.90;100653.34;5095727;28;20023;-68
2023/06/22 07:06:13;;;;;;;5.82;4.40;;;;;;;27.88;61.28;100661.19;5100397;28;20059;-69
2023/06/22 07:08:39;;;;;;;5.90;4.47;;;;;;;27.96;60.32;100645.09;5088007;28;20337;-69
2023/06/22 07:11:05;;;;;;;8.43;4.85;;;;;;;28.15;59.64;100654.94;5091084;28;20039;-70
2023/06/22 07:13:30;;;;;;;6.13;4.30;;;;;;;28.22;58.30;100639.13;5097185;28;20038;-70
2023/06/22 07:15:56;;;;;;;9.65;4.25;;;;;;;28.41;56.58;100643.41;5093820;28;20032;-70
2023/06/22 07:18:21;;;;;;;7.07;4.45;;;;;;;28.55;55.57;100638.50;5090902;28;20043;-69
2023/06/22 07:20:47;;;;;;;8.60;3.67;;;;;;;28.65;54.91;100646.13;5099272;28;20086;-69
2023/06/22 07:23:13;;;;;;;7.90;3.80;;;;;;;28.75;54.01;100643.63;5087045;28;20044;-70
2023/06/22 07:25:39;;;;;;;7.57;3.45;;;;;;;28.83;53.62;100641.31;5098365;28;20028;-69
2023/06/22 07:28:06;;;;;;;6.88;4.40;;;;;;;28.87;53.06;100628.66;5100048;28;20031;-69
2023/06/22 07:30:33;;;;;;;11.02;4.30;;;;;;;28.95;53.19;100621.91;5088439;28;20047;-69
2023/06/22 07:33:02;;;;;;;6.18;4.45;;;;;;;29.06;52.55;100627.41;5100218;28;20042;-68
2023/06/22 07:35:28;;;;;;;6.70;4.22;;;;;;;29.18;52.41;100632.88;5085606;28;20097;-69
2023/06/22 07:37:53;;;;;;;5.80;4.43;;;;;;;29.18;52.49;100628.19;5087441;28;20036;-69
2023/06/22 07:40:19;;;;;;;6.43;4.68;;;;;;;29.30;52.20;100631.72;5093603;28;20042;-71
2023/06/22 07:42:44;;;;;;;5.13;4.13;;;;;;;29.45;52.30;100633.91;5088733;28;20111;-69
2023/06/22 07:45:10;;;;;;;6.05;4.43;;;;;;;29.51;52.30;100621.88;5103625;28;20035;-71
2023/06/22 07:47:36;;;;;;;7.88;4.75;;;;;;;29.67;51.91;100635.75;5092630;28;20027;-69
2023/06/22 07:50:02;;;;;;;8.60;4.78;;;;;;;29.79;51.70;100624.59;5088092;28;20131;-69
2023/06/22 07:52:31;;;;;;;7.50;4.57;;;;;;;29.74;51.19;100610.66;5090618;28;20146;-71
2023/06/22 07:54:57;;;;;;;6.18;4.32;;;;;;;29.94;51.07;100625.66;5097914;28;20088;-70
2023/06/22 07:57:23;;;;;;;5.50;4.57;;;;;;;29.92;51.24;100615.94;5094778;28;20024;-70
2023/06/22 07:59:48;;;;;;;8.57;5.00;;;;;;;30.12;50.84;100639.19;5094322;28;20024;-68
2023/06/22 08:02:23;;;;;;;7.13;4.38;;;;;;;30.06;50.12;100626.41;5095859;28;20058;-72
2023/06/22 08:04:48;;;;;;;7.85;4.07;;;;;;;30.21;49.68;100637.72;5091581;28;20086;-69
2023/06/22 08:07:14;;;;;;;8.20;4.18;;;;;;;30.26;49.22;100626.72;5088817;28;20471;-68
2023/06/22 08:09:46;;;;;;;8.38;3.63;;;;;;;30.31;48.63;100628.72;5098281;28;20036;-68
2023/06/22 08:12:12;;;;;;;8.02;4.00;;;;;;;30.39;48.06;100626.34;5094416;28;20059;-69
2023/06/22 08:14:38;;;;;;;9.57;3.70;;;;;;;30.45;47.75;100630.00;5095502;28;20035;-70
2023/06/22 08:17:04;;;;;;;7.93;4.00;;;;;;;30.50;47.72;100630.09;5098033;28;20431;-70
2023/06/22 08:19:30;;;;;;;8.07;3.85;;;;;;;30.55;47.76;100624.59;5106119;28;20463;-69
2023/06/22 08:21:57;;;;;;;8.88;4.45;;;;;;;30.59;48.08;100631.28;5103892;28;20090;-70
2023/06/22 08:24:23;;;;;;;7.22;3.78;;;;;;;30.60;48.38;100638.53;5104302;28;20034;-70
2023/06/22 08:26:51;;;;;;;8.02;3.88;;;;;;;30.52;48.23;100611.28;5102568;28;20028;-70
2023/06/22 08:29:17;;;;;;;6.43;4.03;;;;;;;30.64;48.17;100631.38;5103451;28;20367;-70
2023/06/22 08:31:42;;;;;;;7.50;4.28;;;;;;;30.71;48.63;100632.00;5105493;28;20018;-70
2023/06/22 08:34:08;;;;;;;6.90;4.15;;;;;;;30.76;48.59;100621.03;5103565;28;20526;-70
2023/06/22 08:36:37;;;;;;;7.55;3.67;;;;;;;30.75;48.47;100630.44;5098688;28;20443;-70
2023/06/22 08:39:03;;;;;;;9.13;4.20;;;;;;;30.76;48.54;100620.19;5102942;28;22099;-71
2023/06/22 08:41:29;;;;;;;10.73;3.72;;;;;;;30.79;48.81;100626.06;5097777;28;20028;-70
2023/06/22 08:43:55;;;;;;;9.57;4.25;;;;;;;30.80;48.81;100627.72;5099312;28;20388;-70
2023/06/22 08:46:23;;;;;;;8.95;4.00;;;;;;;30.79;48.65;100630.75;5099688;28;20032;-70
2023/06/22 08:48:50;;;;;;;8.25;4.22;;;;;;;30.75;48.26;100616.56;5095616;27;20532;-70
2023/06/22 08:51:16;;;;;;;9.65;4.68;;;;;;;30.80;48.38;100613.88;5094664;28;20506;-71
2023/06/22 08:53:41;;;;;;;9.63;4.15;;;;;;;30.84;48.58;100617.78;5103952;28;20034;-69
2023/06/22 08:56:06;;;;;;;9.13;4.55;;;;;;;30.83;48.58;100610.59;5095047;28;20102;-71
2023/06/22 08:58:32;;;;;;;7.85;4.43;;;;;;;30.70;48.88;100588.81;5097444;28;20031;-72
2023/06/22 09:01:00;;;;;;;10.50;4.63;;;;;;;30.73;48.73;100609.63;5102111;28;20048;-71
2023/06/22 09:03:26;;;;;;;8.70;3.60;;;;;;;30.67;49.01;100612.28;5101043;27;20386;-70
2023/06/22 09:05:51;;;;;;;6.30;3.90;;;;;;;30.68;49.33;100599.28;5098852;28;20030;-69
2023/06/22 09:08:17;;;;;;;9.40;4.70;;;;;;;30.74;49.54;100606.59;5092391;28;20087;-70
2023/06/22 09:10:42;;;;;;;8.30;4.50;;;;;;;30.68;49.50;100599.28;5091480;28;20027;-70
2023/06/22 09:13:15;;;;;;;10.98;4.45;;;;;;;30.73;49.89;100604.94;5098678;28;20055;-71
2023/06/22 09:15:40;;;;;;;10.30;4.70;;;;;;;30.72;50.08;100607.94;5098622;28;20078;-71
2023/06/22 09:18:06;;;;;;;11.55;4.63;;;;;;;30.69;50.02;100592.66;5099684;28;20055;-71
2023/06/22 09:20:31;;;;;;;9.15;4.25;;;;;;;30.71;49.90;100590.47;5103321;28;20062;-71
2023/06/22 09:22:57;;;;;;;10.93;5.20;;;;;;;30.81;50.03;100593.38;5094468;28;20531;-70
2023/06/22 09:25:23;;;;;;;8.75;5.93;;;;;;;30.77;49.69;100566.44;5091235;28;20035;-70
2023/06/22 09:27:51;;;;;;;7.68;4.50;;;;;;;30.92;49.59;100588.78;5100923;28;20040;-70
2023/06/22 09:30:17;;;;;;;9.43;5.20;;;;;;;30.92;49.71;100586.03;5092274;28;20032;-70
2023/06/22 09:32:43;;;;;;;8.15;4.82;;;;;;;30.92;49.60;100569.41;5093429;28;20023;-69
2023/06/22 09:35:09;;;;;;;6.88;4.93;;;;;;;31.08;49.54;100585.09;5094224;28;20130;-70
2023/06/22 09:37:35;;;;;;;10.13;6.05;;;;;;;31.19;49.23;100584.91;5093622;27;20112;-70
2023/06/22 09:40:01;;;;;;;13.02;5.85;;;;;;;31.23;49.08;100582.44;5096228;28;20042;-70
2023/06/22 09:42:26;;;;;;;9.93;5.88;;;;;;;31.17;48.95;100572.44;5095505;28;20032;-70
2023/06/22 09:44:52;;;;;;;9.38;5.75;;;;;;;31.25;49.12;100572.78;5098412;28;20481;-72
2023/06/22 09:47:17;;;;;;;10.93;4.97;;;;;;;31.16;49.20;100568.81;5095813;28;20104;-70
2023/06/22 09:49:43;;;;;;;7.60;5.78;;;;;;;31.29;48.87;100579.50;5095399;28;20673;-70
2023/06/22 09:52:08;;;;;;;6.07;5.30;;;;;;;31.32;49.31;100583.66;5100153;28;20023;-71
2023/06/22 09:54:34;;;;;;;8.50;5.32;;;;;;;31.34;49.20;100578.72;5097846;28;20039;-71
2023/06/22 09:56:59;;;;;;;8.57;5.85;;;;;;;31.46;49.06;100577.41;5095594;28;20038;-71
2023/06/22 09:59:24;;;;;;;8.40;6.63;;;;;;;31.55;49.14;100584.16;5101259;28;20119;-71
2023/06/22 10:01:50;;;;;;;8.77;6.35;;;;;;;31.55;49.86;100577.75;5098363;28;20027;-72
2023/06/22 10:04:15;;;;;;;7.82;6.55;;;;;;;31.56;50.09;100566.41;5097817;28;20546;-71
2023/06/22 10:06:41;;;;;;;6.70;5.72;;;;;;;31.67;50.24;100572.88;5096667;28;20031;-70
2023/06/22 10:09:07;;;;;;;8.07;6.88;;;;;;;31.61;50.36;100554.50;5092657;28;20035;-71
2023/06/22 10:11:34;;;;;;;8.70;7.00;;;;;;;31.68;49.92;100563.44;5101663;28;20024;-71
2023/06/22 10:14:01;;;;;;;12.25;7.10;;;;;;;31.48;50.45;100552.19;5095809;28;20080;-72
2023/06/22 10:16:32;;;;;;;9.18;6.78;;;;;;;31.56;50.57;100565.59;5092041;28;20031;-71
2023/06/22 10:18:58;;;;;;;7.88;7.10;;;;;;;31.53;50.78;100563.34;5094631;28;20024;-70
2023/06/22 10:21:23;;;;;;;10.05;7.22;;;;;;;31.58;50.62;100563.38;5101838;28;20050;-71
2023/06/22 10:23:49;;;;;;;10.18;6.60;;;;;;;31.60;50.79;100566.72;5087277;28;20059;-71
2023/06/22 10:26:14;;;;;;;8.50;7.40;;;;;;;31.61;50.63;100554.50;5090120;28;20031;-72
2023/06/22 10:28:39;;;;;;;7.97;7.18;;;;;;;31.61;50.59;100560.06;5095180;28;20023;-71
2023/06/22 10:31:06;;;;;;;9.85;7.18;;;;;;;31.63;50.75;100571.75;5096230;28;20048;-71
2023/06/22 10:33:32;;;;;;;10.45;7.38;;;;;;;31.63;50.78;100552.31;5098503;28;20037;-70
2023/06/22 10:35:57;;;;;;;9.00;6.80;;;;;;;31.61;50.49;100547.03;5091745;28;20036;-71
2023/06/22 10:38:23;;;;;;;7.93;6.80;;;;;;;31.71;50.79;100552.66;5098107;28;20076;-71
2023/06/22 10:40:48;;;;;;;8.15;7.07;;;;;;;31.74;50.42;100552.13;5097061;28;20043;-71
2023/06/22 10:43:14;;;;;;;8.05;6.82;;;;;;;31.84;50.39;100560.53;5089325;28;20062;-71
2023/06/22 10:45:39;;;;;;;7.88;6.88;;;;;;;31.84;50.05;100555.00;5096038;28;20039;-70
2023/06/22 10:48:05;;;;;;;8.35;6.60;;;;;;;31.85;49.95;100562.22;5101833;28;20020;-71
2023/06/22 10:50:30;;;;;;;7.88;7.15;;;;;;;31.81;49.93;100544.44;5088944;28;20040;-70
2023/06/22 10:52:55;;;;;;;8.55;7.45;;;;;;;31.87;50.17;100556.38;5089261;28;20028;-72
2023/06/22 10:55:21;;;;;;;8.48;7.03;;;;;;;31.90;50.45;100558.63;5100115;28;20077;-71
2023/06/22 10:57:46;;;;;;;8.77;7.78;;;;;;;31.81;50.70;100538.03;5097768;28;20023;-71
2023/06/22 11:00:14;;;;;;;11.15;7.30;;;;;;;31.95;50.98;100556.72;5096429;28;20024;-70
2023/06/22 11:02:39;;;;;;;8.43;7.60;;;;;;;31.95;50.79;100542.84;5094535;28;20032;-70
2023/06/22 11:05:05;;;;;;;9.10;7.43;;;;;;;32.08;50.43;100559.00;5089576;28;20469;-72
2023/06/22 11:07:33;;;;;;;12.25;8.93;;;;;;;32.02;49.99;100553.72;5102919;28;20023;-72
2023/06/22 11:09:59;;;;;;;9.82;7.20;;;;;;;31.98;49.89;100558.16;5101848;28;20044;-72
2023/06/22 11:12:24;;;;;;;8.30;7.40;;;;;;;31.88;49.95;100541.41;5099684;28;20122;-72
2023/06/22 11:14:53;;;;;;;9.68;8.55;;;;;;;31.94;50.63;100556.97;5098283;28;20403;-71
2023/06/22 11:17:23;;;;;;;10.50;7.78;;;;;;;31.83;50.53;100536.69;5096784;28;20027;-71
2023/06/22 11:19:49;;;;;;;11.10;8.27;;;;;;;31.80;50.80;100542.78;5093957;28;20093;-70
2023/06/22 11:22:14;;;;;;;10.10;8.02;;;;;;;31.75;51.02;100530.75;5091668;28;20051;-71